createdAt,value
2022-08-19T00:07:10.891Z,9.60
2022-08-19T00:13:07.572Z,9.73
2022-08-19T00:23:35.475Z,7.80
2022-08-19T00:27:26.287Z,8.73
2022-08-19T00:30:24.727Z,8.52
2022-08-19T00:37:44.533Z,9.23
2022-08-19T00:40:26.820Z,9.52
2022-08-19T00:43:14.533Z,8.75
2022-08-19T00:50:07.545Z,8.48
2022-08-19T00:52:52.620Z,8.85
2022-08-19T00:56:21.408Z,8.90
2022-08-19T01:03:57.067Z,9.65
2022-08-19T01:06:45.400Z,9.38
2022-08-19T01:09:22.759Z,9.15
2022-08-19T01:12:01.305Z,9.77
2022-08-19T01:14:37.637Z,9.70
2022-08-19T01:19:54.425Z,9.45
2022-08-19T01:22:54.526Z,10.30
2022-08-19T01:25:33.604Z,9.75
2022-08-19T01:28:14.724Z,10.13
2022-08-19T01:30:56.986Z,8.57
2022-08-19T01:33:26.308Z,9.25
2022-08-19T01:35:53.971Z,9.95
2022-08-19T01:39:06.965Z,9.10
2022-08-19T01:42:03.488Z,9.15
2022-08-19T01:44:33.455Z,8.65
2022-08-19T01:47:05.917Z,10.02
2022-08-19T01:49:37.025Z,10.95
2022-08-19T01:52:05.756Z,10.80
2022-08-19T01:54:38.523Z,11.68
2022-08-19T01:57:18.758Z,11.23
2022-08-19T02:00:54.910Z,11.57
2022-08-19T02:03:26.490Z,10.13
2022-08-19T02:06:05.483Z,10.32
2022-08-19T02:12:30.423Z,10.65
2022-08-19T02:14:59.626Z,10.63
2022-08-19T02:17:32.728Z,10.80
2022-08-19T02:20:05.072Z,11.00
2022-08-19T02:22:32.439Z,11.25
2022-08-19T02:25:03.848Z,11.57
2022-08-19T02:28:37.779Z,10.95
2022-08-19T02:31:18.530Z,10.43
2022-08-19T02:33:46.453Z,11.57
2022-08-19T02:36:15.448Z,10.88
2022-08-19T02:39:36.382Z,10.85
2022-08-19T02:42:10.340Z,10.90
2022-08-19T02:44:39.796Z,9.23
2022-08-19T02:47:10.674Z,10.73
2022-08-19T02:49:41.882Z,10.32
2022-08-19T02:52:19.799Z,9.48
2022-08-19T02:54:48.953Z,10.38
2022-08-19T02:57:21.111Z,9.52
2022-08-19T02:59:53.275Z,10.70
2022-08-19T03:02:23.021Z,10.30
2022-08-19T03:05:01.842Z,9.25
2022-08-19T03:07:50.914Z,9.30
2022-08-19T03:10:22.534Z,9.40
2022-08-19T03:12:57.154Z,10.20
2022-08-19T03:15:30.794Z,10.38
2022-08-19T03:17:59.110Z,9.40
2022-08-19T03:20:27.222Z,10.18
2022-08-19T03:22:54.471Z,9.38
2022-08-19T03:25:21.791Z,10.05
2022-08-19T03:28:11.794Z,10.63
2022-08-19T03:30:43.556Z,9.38
2022-08-19T03:33:13.686Z,10.02
2022-08-19T03:35:46.328Z,10.77
2022-08-19T03:42:30.079Z,10.48
2022-08-19T03:44:45.962Z,11.40
2022-08-19T03:47:18.863Z,10.95
2022-08-19T03:50:28.814Z,12.63
2022-08-19T03:52:55.973Z,11.23
2022-08-19T03:55:22.961Z,10.27
2022-08-19T03:57:58.959Z,12.60
2022-08-19T04:00:27.494Z,10.50
2022-08-19T04:03:00.526Z,12.20
2022-08-19T04:05:29.687Z,11.50
2022-08-19T04:08:35.668Z,11.18
2022-08-19T04:11:07.319Z,10.38
2022-08-19T04:13:35.013Z,11.23
2022-08-19T04:16:02.131Z,10.02
2022-08-19T04:22:47.479Z,10.45
2022-08-19T04:25:15.705Z,9.80
2022-08-19T04:27:47.438Z,10.20
2022-08-19T04:30:15.329Z,11.25
2022-08-19T04:32:47.652Z,10.35
2022-08-19T04:35:16.909Z,9.63
2022-08-19T04:37:50.507Z,10.95
2022-08-19T04:40:36.020Z,9.45
2022-08-19T04:43:03.171Z,10.85
2022-08-19T04:45:32.723Z,11.10
2022-08-19T04:48:26.348Z,11.55
2022-08-19T04:51:00.109Z,11.65
2022-08-19T04:53:37.644Z,12.52
2022-08-19T04:56:11.389Z,12.13
2022-08-19T05:01:13.942Z,11.63
2022-08-19T05:03:41.131Z,11.07
2022-08-19T05:06:11.514Z,11.50
2022-08-19T05:09:10.243Z,10.18
2022-08-19T05:11:40.181Z,9.77
2022-08-19T05:14:08.551Z,10.65
2022-08-19T05:16:36.021Z,10.32
2022-08-19T05:19:25.109Z,10.48
2022-08-19T05:22:10.532Z,10.60
2022-08-19T05:24:56.393Z,9.57
2022-08-19T05:27:27.161Z,9.73
2022-08-19T05:29:54.381Z,9.98
2022-08-19T05:32:24.509Z,10.45
2022-08-19T05:34:51.591Z,10.50
2022-08-19T05:37:18.688Z,9.32
2022-08-19T05:39:51.450Z,8.88
2022-08-19T05:42:21.103Z,9.20
2022-08-19T05:44:50.120Z,8.23
2022-08-19T05:47:17.841Z,7.35
2022-08-19T05:49:45.232Z,7.95
2022-08-19T05:52:16.420Z,7.95
2022-08-19T05:54:51.296Z,8.10
2022-08-19T05:57:20.293Z,7.45
2022-08-19T05:59:53.232Z,6.70
2022-08-19T06:02:31.622Z,5.95
2022-08-19T06:04:59.091Z,6.43
2022-08-19T06:07:26.549Z,6.28
2022-08-19T06:09:59.716Z,7.20
2022-08-19T06:12:35.572Z,5.90
2022-08-19T06:15:10.909Z,6.80
2022-08-19T06:17:38.560Z,6.53
2022-08-19T06:20:09.788Z,6.65
2022-08-19T06:22:44.998Z,5.25
2022-08-19T06:25:13.635Z,7.32
2022-08-19T06:28:15.383Z,6.53
2022-08-19T06:30:43.055Z,6.50
2022-08-19T06:33:10.256Z,6.28
2022-08-19T06:35:41.440Z,6.78
2022-08-19T06:38:13.763Z,7.03
2022-08-19T06:40:40.873Z,7.22
2022-08-19T06:43:33.101Z,7.10
2022-08-19T06:46:04.679Z,7.15
2022-08-19T06:48:45.260Z,6.95
2022-08-19T06:51:19.814Z,6.00
2022-08-19T06:53:52.882Z,6.53
2022-08-19T06:56:34.650Z,7.32
2022-08-19T06:59:12.329Z,6.90
2022-08-19T07:01:42.883Z,7.65
2022-08-19T07:04:13.611Z,8.63
2022-08-19T07:06:44.129Z,9.57
2022-08-19T07:10:25.918Z,7.18
2022-08-19T07:12:53.093Z,7.10
2022-08-19T07:15:22.424Z,6.60
2022-08-19T07:18:21.259Z,6.80
2022-08-19T07:20:49.175Z,6.13
2022-08-19T07:23:16.734Z,7.28
2022-08-19T07:25:44.624Z,6.28
2022-08-19T07:28:40.126Z,6.10
2022-08-19T07:31:23.193Z,6.03
2022-08-19T07:33:53.372Z,6.72
2022-08-19T07:36:25.362Z,7.22
2022-08-19T07:39:22.905Z,6.30
2022-08-19T07:41:51.573Z,6.05
2022-08-19T07:44:21.225Z,7.60
2022-08-19T07:46:53.186Z,6.05
2022-08-19T07:49:23.349Z,7.30
2022-08-19T07:52:03.744Z,6.70
2022-08-19T07:54:35.446Z,6.43
2022-08-19T07:57:03.824Z,6.78
2022-08-19T08:03:48.832Z,5.90
2022-08-19T08:06:35.140Z,6.55
2022-08-19T08:09:24.869Z,5.13
2022-08-19T08:12:04.957Z,6.35
2022-08-19T08:14:45.199Z,6.28
2022-08-19T08:17:48.448Z,6.30
2022-08-19T08:20:16.504Z,6.43
2022-08-19T08:23:10.633Z,6.35
2022-08-19T08:25:46.034Z,5.78
2022-08-19T08:31:09.319Z,5.38
2022-08-19T08:33:38.934Z,5.60
2022-08-19T08:36:15.286Z,5.38
2022-08-19T08:39:55.741Z,5.75
2022-08-19T08:42:38.608Z,4.63
2022-08-19T08:45:17.049Z,4.93
2022-08-19T08:47:52.274Z,5.38
2022-08-19T08:50:36.655Z,4.63
2022-08-19T08:53:07.052Z,4.80
2022-08-19T08:55:36.774Z,5.07
2022-08-19T08:59:00.740Z,4.63
2022-08-19T09:01:30.789Z,4.35
2022-08-19T09:04:06.132Z,4.30
2022-08-19T09:06:55.092Z,4.38
2022-08-19T09:09:51.809Z,4.40
2022-08-19T09:12:43.179Z,3.90
2022-08-19T09:15:18.500Z,4.28
2022-08-19T09:21:52.301Z,3.88
2022-08-19T09:24:31.331Z,4.05
2022-08-19T09:27:54.038Z,4.50
2022-08-19T09:30:33.372Z,4.35
2022-08-19T09:33:35.246Z,4.07
2022-08-19T09:40:37.921Z,3.55
2022-08-19T09:47:03.913Z,3.50
2022-08-19T09:49:58.122Z,3.70
2022-08-19T09:52:55.111Z,3.50
2022-08-19T09:55:31.876Z,3.63
2022-08-19T09:58:05.380Z,3.20
2022-08-19T10:00:32.406Z,3.30
2022-08-19T10:02:59.579Z,3.33
2022-08-19T10:05:45.027Z,3.13
2022-08-19T10:08:21.983Z,3.08
2022-08-19T10:10:54.561Z,2.65
2022-08-19T10:13:25.835Z,3.00
2022-08-19T10:16:02.941Z,3.00
2022-08-19T10:18:36.219Z,3.25
2022-08-19T10:21:32.166Z,2.90
2022-08-19T10:24:04.661Z,2.67
2022-08-19T10:26:37.852Z,2.33
2022-08-19T10:29:32.582Z,2.53
2022-08-19T10:32:09.864Z,2.90
2022-08-19T10:34:48.765Z,2.35
2022-08-19T10:37:23.959Z,3.00
2022-08-19T10:39:56.567Z,2.60
2022-08-19T10:42:23.650Z,2.45
2022-08-19T10:44:51.853Z,2.88
2022-08-19T10:47:25.861Z,3.00
2022-08-19T10:50:13.203Z,2.25
2022-08-19T10:52:49.540Z,2.60
2022-08-19T10:55:38.958Z,3.00
2022-08-19T10:58:13.266Z,2.47
2022-08-19T11:00:41.495Z,3.15
2022-08-19T11:03:09.475Z,2.85
2022-08-19T11:05:40.447Z,3.53
2022-08-19T11:08:28.572Z,3.20
2022-08-19T11:10:58.535Z,2.90
2022-08-19T11:13:26.009Z,3.20
2022-08-19T11:16:08.559Z,3.50
2022-08-19T11:18:41.392Z,3.63
2022-08-19T11:21:09.252Z,3.67
2022-08-19T11:23:36.197Z,3.08
2022-08-19T11:26:03.701Z,2.85
2022-08-19T11:28:33.029Z,2.85
2022-08-19T11:31:00.616Z,3.10
2022-08-19T11:33:27.574Z,2.80
2022-08-19T11:35:55.373Z,2.58
2022-08-19T11:38:42.251Z,2.58
2022-08-19T11:41:09.661Z,2.63
2022-08-19T11:43:37.918Z,2.75
2022-08-19T11:46:10.842Z,2.95
2022-08-19T11:51:09.654Z,2.47
2022-08-19T11:53:37.467Z,2.90
2022-08-19T11:56:05.976Z,3.30
2022-08-19T11:58:38.250Z,2.97
2022-08-19T12:01:10.379Z,3.50
2022-08-19T12:03:37.961Z,3.20
2022-08-19T12:06:10.770Z,3.40
2022-08-19T12:09:36.184Z,3.40
2022-08-19T12:12:03.816Z,3.17
2022-08-19T12:14:32.913Z,3.30
2022-08-19T12:17:00.082Z,3.22
2022-08-19T12:23:15.337Z,3.70
2022-08-19T12:25:51.024Z,3.72
2022-08-19T12:28:19.228Z,3.63
2022-08-19T12:30:46.737Z,3.80
2022-08-19T12:33:14.994Z,2.95
2022-08-19T12:35:45.709Z,3.90
2022-08-19T12:38:15.705Z,3.20
2022-08-19T12:40:45.977Z,3.00
2022-08-19T12:43:12.887Z,3.13
2022-08-19T12:45:39.828Z,3.78
2022-08-19T12:48:32.857Z,2.97
2022-08-19T12:50:59.246Z,3.55
2022-08-19T12:53:26.466Z,3.75
2022-08-19T12:55:58.256Z,3.70
2022-08-19T12:58:27.316Z,3.75
2022-08-19T13:00:54.573Z,3.63
2022-08-19T13:03:23.581Z,2.60
2022-08-19T13:05:52.121Z,2.13
2022-08-19T13:08:19.222Z,3.35
2022-08-19T13:10:46.106Z,2.65
2022-08-19T13:13:13.120Z,2.45
2022-08-19T13:15:42.224Z,2.55
2022-08-19T13:18:28.918Z,2.55
2022-08-19T13:20:55.849Z,2.60
2022-08-19T13:23:22.742Z,2.42
2022-08-19T13:26:04.508Z,1.75
2022-08-19T13:28:53.048Z,1.95
2022-08-19T13:31:41.023Z,1.85
2022-08-19T13:34:08.797Z,1.90
2022-08-19T13:36:36.960Z,1.45
2022-08-19T13:39:06.384Z,2.38
2022-08-19T13:41:34.689Z,1.67
2022-08-19T13:44:02.844Z,2.00
2022-08-19T13:46:31.499Z,1.88
2022-08-19T13:48:58.776Z,2.13
2022-08-19T13:51:25.816Z,2.22
2022-08-19T13:53:52.754Z,1.90
2022-08-19T13:56:25.414Z,1.98
2022-08-19T13:58:59.359Z,1.88
2022-08-19T14:01:27.508Z,1.70
2022-08-19T14:03:54.487Z,2.03
2022-08-19T14:06:23.278Z,1.77
2022-08-19T14:08:53.723Z,1.83
2022-08-19T14:11:20.693Z,1.15
2022-08-19T14:13:47.609Z,1.67
2022-08-19T14:16:15.208Z,1.90
2022-08-19T14:18:43.545Z,2.13
2022-08-19T14:21:23.496Z,1.90
2022-08-19T14:23:50.956Z,1.92
2022-08-19T14:26:20.736Z,1.60
2022-08-19T14:29:29.867Z,1.60
2022-08-19T14:31:59.918Z,2.08
2022-08-19T14:34:27.720Z,1.52
2022-08-19T14:36:54.663Z,1.90
2022-08-19T14:39:22.876Z,1.67
2022-08-19T14:41:49.951Z,1.50
2022-08-19T14:44:16.852Z,1.90
2022-08-19T14:46:49.687Z,2.08
2022-08-19T14:49:17.800Z,1.50
2022-08-19T14:51:46.592Z,2.03
2022-08-19T14:54:13.940Z,2.58
2022-08-19T14:56:42.247Z,1.80
2022-08-19T14:59:32.950Z,1.40
2022-08-19T15:02:00.747Z,2.00
2022-08-19T15:04:47.825Z,1.63
2022-08-19T15:07:28.270Z,2.00
2022-08-19T15:09:56.170Z,1.40
2022-08-19T15:12:23.596Z,1.38
2022-08-19T15:14:54.603Z,1.70
2022-08-19T15:17:43.604Z,1.92
2022-08-19T15:20:13.617Z,1.75
2022-08-19T15:22:41.347Z,1.90
2022-08-19T15:25:11.662Z,1.75
2022-08-19T15:27:44.252Z,1.73
2022-08-19T15:30:12.401Z,2.00
2022-08-19T15:32:39.925Z,1.88
2022-08-19T15:35:09.359Z,1.65
2022-08-19T15:37:37.323Z,1.98
2022-08-19T15:40:06.403Z,1.83
2022-08-19T15:42:34.081Z,1.98
2022-08-19T15:45:02.513Z,1.75
2022-08-19T15:47:35.121Z,2.30
2022-08-19T15:50:23.728Z,1.45
2022-08-19T15:53:01.198Z,1.85
2022-08-19T15:55:34.660Z,1.98
2022-08-19T15:58:29.523Z,1.02
2022-08-19T16:01:23.732Z,2.00
2022-08-19T16:04:14.544Z,1.83
2022-08-19T16:06:55.833Z,2.13
2022-08-19T16:10:26.204Z,2.35
2022-08-19T16:12:47.927Z,1.75
2022-08-19T16:15:15.113Z,1.80
2022-08-19T16:17:42.455Z,1.77
2022-08-19T16:20:13.563Z,2.03
2022-08-19T16:22:40.595Z,1.65
2022-08-19T16:25:09.261Z,1.88
2022-08-19T16:27:41.803Z,1.95
2022-08-19T16:30:28.744Z,1.92
2022-08-19T16:32:55.639Z,2.00
2022-08-19T16:35:22.586Z,2.15
2022-08-19T16:37:55.395Z,2.17
2022-08-19T16:40:22.593Z,2.38
2022-08-19T16:42:49.597Z,2.60
2022-08-19T16:45:19.550Z,2.33
2022-08-19T16:47:46.501Z,3.08
2022-08-19T16:50:22.135Z,2.38
2022-08-19T16:52:58.905Z,2.67
2022-08-19T16:55:27.946Z,3.55
2022-08-19T16:58:15.164Z,2.53
2022-08-19T17:00:42.135Z,3.83
2022-08-19T17:03:14.738Z,2.70
2022-08-19T17:05:43.694Z,3.60
2022-08-19T17:08:10.845Z,2.90
2022-08-19T17:10:38.292Z,3.22
2022-08-19T17:13:06.328Z,3.30
2022-08-19T17:15:33.557Z,3.30
2022-08-19T17:18:03.249Z,2.63
2022-08-19T17:20:31.685Z,2.92
2022-08-19T17:22:59.044Z,3.63
2022-08-19T17:25:28.635Z,3.42
2022-08-19T17:27:56.106Z,3.10
2022-08-19T17:30:24.548Z,3.05
2022-08-19T17:32:51.977Z,3.53
2022-08-19T17:35:24.188Z,3.80
2022-08-19T17:37:51.631Z,4.20
2022-08-19T17:40:19.727Z,4.18
2022-08-19T17:42:51.194Z,3.95
2022-08-19T17:45:18.141Z,4.15
2022-08-19T17:47:45.094Z,4.18
2022-08-19T17:50:13.079Z,4.47
2022-08-19T17:52:40.128Z,4.03
2022-08-19T17:55:07.767Z,3.25
2022-08-19T17:57:34.881Z,3.58
2022-08-19T18:00:03.281Z,3.65
2022-08-19T18:02:33.358Z,4.38
2022-08-19T18:05:03.408Z,4.57
2022-08-19T18:07:32.380Z,3.90
2022-08-19T18:09:59.275Z,5.47
2022-08-19T18:12:28.926Z,3.90
2022-08-19T18:14:57.618Z,4.75
2022-08-19T18:17:25.994Z,4.38
2022-08-19T18:19:52.867Z,4.63
2022-08-19T18:22:51.594Z,4.95
2022-08-19T18:25:25.811Z,4.13
2022-08-19T18:28:12.804Z,4.95
2022-08-19T18:30:39.844Z,4.75
2022-08-19T18:33:15.223Z,4.40
2022-08-19T18:35:48.744Z,4.70
2022-08-19T18:38:53.096Z,4.75
2022-08-19T18:41:38.677Z,5.07
2022-08-19T18:44:23.908Z,4.30
2022-08-19T18:47:14.379Z,4.90
2022-08-19T18:50:19.444Z,4.60
2022-08-19T18:52:46.436Z,4.88
2022-08-19T18:55:13.445Z,4.95
2022-08-19T18:57:41.330Z,4.90
2022-08-19T19:00:09.854Z,4.57
2022-08-19T19:02:41.362Z,4.97
2022-08-19T19:05:08.516Z,4.80
2022-08-19T19:07:35.952Z,5.25
2022-08-19T19:10:04.012Z,4.72
2022-08-19T19:12:31.053Z,5.43
2022-08-19T19:14:58.835Z,5.28
2022-08-19T19:17:28.140Z,5.22
2022-08-19T19:19:55.176Z,4.95
2022-08-19T19:22:23.181Z,4.93
2022-08-19T19:24:51.219Z,4.88
2022-08-19T19:27:20.698Z,5.40
2022-08-19T19:29:52.213Z,5.13
2022-08-19T19:32:24.283Z,5.28
2022-08-19T19:34:51.532Z,4.47
2022-08-19T19:37:19.168Z,6.35
2022-08-19T19:39:48.039Z,6.00
2022-08-19T19:42:21.546Z,5.40
2022-08-19T19:44:50.802Z,4.80
2022-08-19T19:47:19.056Z,5.07
2022-08-19T19:52:40.515Z,5.80
2022-08-19T19:55:09.421Z,5.22
2022-08-19T19:57:40.724Z,5.15
2022-08-19T20:00:13.070Z,5.03
2022-08-19T20:02:40.820Z,5.97
2022-08-19T20:05:08.191Z,5.88
2022-08-19T20:07:54.315Z,5.68
2022-08-19T20:10:21.482Z,6.25
2022-08-19T20:12:48.734Z,6.00
2022-08-19T20:15:15.641Z,5.90
2022-08-19T20:17:43.066Z,5.50
2022-08-19T20:20:13.920Z,6.07
2022-08-19T20:22:43.100Z,5.82
2022-08-19T20:25:12.035Z,6.15
2022-08-19T20:27:57.996Z,6.03
2022-08-19T20:30:25.805Z,5.60
2022-08-19T20:32:56.527Z,5.57
2022-08-19T20:35:23.596Z,5.68
2022-08-19T20:37:58.104Z,6.20
2022-08-19T20:40:27.509Z,5.90
2022-08-19T20:42:55.073Z,5.40
2022-08-19T20:45:32.976Z,5.20
2022-08-19T20:48:03.251Z,5.40
2022-08-19T20:50:31.987Z,6.00
2022-08-19T20:52:59.194Z,5.70
2022-08-19T20:55:27.288Z,5.18
2022-08-19T20:57:55.234Z,5.55
2022-08-19T21:00:22.295Z,4.70
2022-08-19T21:02:49.286Z,5.30
2022-08-19T21:05:16.222Z,5.38
2022-08-19T21:07:43.428Z,4.30
2022-08-19T21:10:11.190Z,5.32
2022-08-19T21:12:38.823Z,5.03
2022-08-19T21:15:07.234Z,5.20
2022-08-19T21:17:34.210Z,4.90
2022-08-19T21:20:01.080Z,5.03
2022-08-19T21:22:28.165Z,5.07
2022-08-19T21:24:55.089Z,4.97
2022-08-19T21:27:21.946Z,4.85
2022-08-19T21:29:49.152Z,4.60
2022-08-19T21:32:16.314Z,4.65
2022-08-19T21:34:43.962Z,4.45
2022-08-19T21:37:19.018Z,4.95
2022-08-19T21:39:53.640Z,4.43
2022-08-19T21:42:21.346Z,4.95
2022-08-19T21:44:48.287Z,4.53
2022-08-19T21:47:15.388Z,4.32
2022-08-19T21:49:42.351Z,5.15
2022-08-19T21:52:09.829Z,4.65
2022-08-19T21:54:38.041Z,4.50
2022-08-19T21:57:07.106Z,5.20
2022-08-19T21:59:39.915Z,4.45
2022-08-19T22:02:20.042Z,5.05
2022-08-19T22:04:52.229Z,4.75
2022-08-19T22:07:21.391Z,4.80
2022-08-19T22:09:50.813Z,4.90
2022-08-19T22:12:23.262Z,5.22
2022-08-19T22:14:51.684Z,4.97
2022-08-19T22:17:19.710Z,5.50
2022-08-19T22:20:47.059Z,5.20
2022-08-19T22:23:13.955Z,5.20
2022-08-19T22:25:45.438Z,5.13
2022-08-19T22:28:18.780Z,4.57
2022-08-19T22:30:54.744Z,5.25
2022-08-19T22:33:22.583Z,5.07
2022-08-19T22:35:51.369Z,4.55
2022-08-19T22:38:19.499Z,5.05
2022-08-19T22:40:48.484Z,5.40
2022-08-19T22:43:24.709Z,5.13
2022-08-19T22:45:53.679Z,5.55
2022-08-19T22:48:23.503Z,5.07
2022-08-19T22:51:09.809Z,5.38
2022-08-19T22:53:39.411Z,5.43
2022-08-19T22:56:11.948Z,4.57
2022-08-19T22:58:42.381Z,5.38
2022-08-19T23:01:11.985Z,4.80
2022-08-19T23:03:52.298Z,5.07
2022-08-19T23:06:19.157Z,5.55
2022-08-19T23:08:47.469Z,5.25
2022-08-19T23:11:14.892Z,4.82
2022-08-19T23:13:42.568Z,5.07
2022-08-19T23:16:09.632Z,5.10
2022-08-19T23:18:38.860Z,5.35
2022-08-19T23:21:09.540Z,4.82
2022-08-19T23:23:37.694Z,5.70
2022-08-19T23:26:06.440Z,5.43
2022-08-19T23:28:58.117Z,5.50
2022-08-19T23:31:26.692Z,4.88
2022-08-19T23:33:53.619Z,5.78
2022-08-19T23:36:21.293Z,5.10
2022-08-19T23:38:51.997Z,5.45
2022-08-19T23:41:21.370Z,5.65
2022-08-19T23:43:48.425Z,5.38
2022-08-19T23:46:27.313Z,5.88
2022-08-19T23:48:57.382Z,4.75
2022-08-19T23:51:26.705Z,5.13
2022-08-19T23:53:54.081Z,5.15
2022-08-19T23:56:21.485Z,5.88
2022-08-19T23:58:51.446Z,5.85
